sensor_id;sensor_type;location;lat;lon;timestamp;P1;durP1;ratioP1;P2;durP2;ratioP2
8252;SDS011;61313;48.396;10.008;2022-10-22T00:00:09;21.83;;;12.00;;
8252;SDS011;61313;48.396;10.008;2022-10-22T00:02:38;11.80;;;10.00;;
8252;SDS011;61313;48.396;10.008;2022-10-22T00:05:04;13.07;;;9.83;;
8252;SDS011;61313;48.396;10.008;2022-10-22T00:07:30;14.40;;;11.57;;
8252;SDS011;61313;48.396;10.008;2022-10-22T00:09:55;12.20;;;9.63;;
8252;SDS011;61313;48.396;10.008;2022-10-22T00:12:21;20.67;;;10.70;;
8252;SDS011;61313;48.396;10.008;2022-10-22T00:14:47;12.30;;;8.50;;
8252;SDS011;61313;48.396;10.008;2022-10-22T00:17:13;10.40;;;8.03;;
8252;SDS011;61313;48.396;10.008;2022-10-22T00:19:39;8.97;;;7.60;;
8252;SDS011;61313;48.396;10.008;2022-10-22T00:22:05;21.83;;;7.73;;
8252;SDS011;61313;48.396;10.008;2022-10-22T00:24:33;9.13;;;5.10;;
8252;SDS011;61313;48.396;10.008;2022-10-22T00:26:59;6.97;;;3.30;;
8252;SDS011;61313;48.396;10.008;2022-10-22T00:29:25;12.00;;;3.47;;
8252;SDS011;61313;48.396;10.008;2022-10-22T00:31:50;6.73;;;1.90;;
8252;SDS011;61313;48.396;10.008;2022-10-22T00:34:16;5.57;;;2.67;;
8252;SDS011;61313;48.396;10.008;2022-10-22T00:36:44;9.13;;;2.03;;
8252;SDS011;61313;48.396;10.008;2022-10-22T00:39:10;4.37;;;1.97;;
8252;SDS011;61313;48.396;10.008;2022-10-22T00:41:37;6.90;;;2.07;;
8252;SDS011;61313;48.396;10.008;2022-10-22T00:44:04;7.70;;;2.60;;
8252;SDS011;61313;48.396;10.008;2022-10-22T00:46:30;6.60;;;2.10;;
8252;SDS011;61313;48.396;10.008;2022-10-22T00:48:57;4.17;;;1.70;;
8252;SDS011;61313;48.396;10.008;2022-10-22T00:51:27;5.43;;;1.70;;
8252;SDS011;61313;48.396;10.008;2022-10-22T00:53:59;5.10;;;1.97;;
8252;SDS011;61313;48.396;10.008;2022-10-22T00:56:28;3.60;;;1.57;;
8252;SDS011;61313;48.396;10.008;2022-10-22T00:58:56;4.63;;;1.60;;
8252;SDS011;61313;48.396;10.008;2022-10-22T01:01:25;2.60;;;1.30;;
8252;SDS011;61313;48.396;10.008;2022-10-22T01:03:53;2.53;;;1.30;;
8252;SDS011;61313;48.396;10.008;2022-10-22T01:06:22;8.60;;;1.60;;
8252;SDS011;61313;48.396;10.008;2022-10-22T01:14:16;4.17;;;1.27;;
8252;SDS011;61313;48.396;10.008;2022-10-22T01:19:41;3.67;;;1.73;;
8252;SDS011;61313;48.396;10.008;2022-10-22T01:31:33;4.60;;;1.30;;
8252;SDS011;61313;48.396;10.008;2022-10-22T01:34:03;1.87;;;1.27;;
8252;SDS011;61313;48.396;10.008;2022-10-22T01:36:32;13.10;;;2.27;;
8252;SDS011;61313;48.396;10.008;2022-10-22T01:39:00;8.40;;;2.10;;
8252;SDS011;61313;48.396;10.008;2022-10-22T01:41:29;9.63;;;2.00;;
8252;SDS011;61313;48.396;10.008;2022-10-22T01:43:55;5.43;;;1.60;;
8252;SDS011;61313;48.396;10.008;2022-10-22T01:46:21;10.37;;;1.97;;
8252;SDS011;61313;48.396;10.008;2022-10-22T01:49:32;6.07;;;1.60;;
8252;SDS011;61313;48.396;10.008;2022-10-22T01:54:28;8.10;;;1.53;;
8252;SDS011;61313;48.396;10.008;2022-10-22T02:00:07;8.07;;;1.83;;
8252;SDS011;61313;48.396;10.008;2022-10-22T02:10:29;2.83;;;1.10;;
8252;SDS011;61313;48.396;10.008;2022-10-22T02:12:56;3.20;;;1.20;;
8252;SDS011;61313;48.396;10.008;2022-10-22T02:15:25;5.00;;;1.40;;
8252;SDS011;61313;48.396;10.008;2022-10-22T02:17:54;4.33;;;1.50;;
8252;SDS011;61313;48.396;10.008;2022-10-22T02:20:24;2.33;;;1.30;;
8252;SDS011;61313;48.396;10.008;2022-10-22T02:22:54;4.13;;;1.60;;
8252;SDS011;61313;48.396;10.008;2022-10-22T02:25:21;17.80;;;3.33;;
8252;SDS011;61313;48.396;10.008;2022-10-22T02:27:59;5.73;;;1.97;;
8252;SDS011;61313;48.396;10.008;2022-10-22T02:30:33;2.50;;;1.50;;
8252;SDS011;61313;48.396;10.008;2022-10-22T02:33:11;4.00;;;1.30;;
8252;SDS011;61313;48.396;10.008;2022-10-22T02:35:41;5.63;;;1.90;;
8252;SDS011;61313;48.396;10.008;2022-10-22T02:38:09;8.07;;;2.03;;
8252;SDS011;61313;48.396;10.008;2022-10-22T02:40:36;2.60;;;1.30;;
8252;SDS011;61313;48.396;10.008;2022-10-22T02:43:03;7.00;;;1.60;;
8252;SDS011;61313;48.396;10.008;2022-10-22T02:45:29;4.30;;;1.90;;
8252;SDS011;61313;48.396;10.008;2022-10-22T02:47:55;3.30;;;1.53;;
8252;SDS011;61313;48.396;10.008;2022-10-22T02:50:21;4.53;;;1.67;;
8252;SDS011;61313;48.396;10.008;2022-10-22T02:52:46;3.33;;;1.40;;
8252;SDS011;61313;48.396;10.008;2022-10-22T02:55:12;3.10;;;1.50;;
8252;SDS011;61313;48.396;10.008;2022-10-22T02:57:38;1.93;;;1.30;;
8252;SDS011;61313;48.396;10.008;2022-10-22T03:00:05;2.20;;;1.53;;
8252;SDS011;61313;48.396;10.008;2022-10-22T03:02:32;4.23;;;1.10;;
8252;SDS011;61313;48.396;10.008;2022-10-22T03:04:57;2.40;;;1.23;;
8252;SDS011;61313;48.396;10.008;2022-10-22T03:07:23;3.03;;;1.03;;
8252;SDS011;61313;48.396;10.008;2022-10-22T03:09:49;4.77;;;1.20;;
8252;SDS011;61313;48.396;10.008;2022-10-22T03:12:14;10.13;;;2.20;;
8252;SDS011;61313;48.396;10.008;2022-10-22T03:14:40;7.60;;;1.47;;
8252;SDS011;61313;48.396;10.008;2022-10-22T03:17:06;1.67;;;1.07;;
8252;SDS011;61313;48.396;10.008;2022-10-22T03:19:32;6.47;;;1.90;;
8252;SDS011;61313;48.396;10.008;2022-10-22T03:22:00;5.83;;;1.73;;
8252;SDS011;61313;48.396;10.008;2022-10-22T03:24:35;5.40;;;1.70;;
8252;SDS011;61313;48.396;10.008;2022-10-22T03:27:06;7.40;;;1.60;;
8252;SDS011;61313;48.396;10.008;2022-10-22T03:29:33;3.23;;;1.33;;
8252;SDS011;61313;48.396;10.008;2022-10-22T03:32:01;2.27;;;1.40;;
8252;SDS011;61313;48.396;10.008;2022-10-22T03:34:27;2.40;;;1.43;;
8252;SDS011;61313;48.396;10.008;2022-10-22T03:36:53;2.93;;;1.20;;
8252;SDS011;61313;48.396;10.008;2022-10-22T03:39:21;5.13;;;1.40;;
8252;SDS011;61313;48.396;10.008;2022-10-22T03:41:48;3.77;;;1.73;;
8252;SDS011;61313;48.396;10.008;2022-10-22T03:44:16;3.03;;;1.60;;
8252;SDS011;61313;48.396;10.008;2022-10-22T03:46:42;3.40;;;1.30;;
8252;SDS011;61313;48.396;10.008;2022-10-22T03:49:08;3.80;;;1.30;;
8252;SDS011;61313;48.396;10.008;2022-10-22T03:51:34;2.17;;;1.77;;
8252;SDS011;61313;48.396;10.008;2022-10-22T03:54:00;2.10;;;1.13;;
8252;SDS011;61313;48.396;10.008;2022-10-22T03:56:27;4.50;;;1.27;;
8252;SDS011;61313;48.396;10.008;2022-10-22T03:58:54;1.90;;;1.03;;
8252;SDS011;61313;48.396;10.008;2022-10-22T04:01:21;2.63;;;1.60;;
8252;SDS011;61313;48.396;10.008;2022-10-22T04:03:47;8.07;;;1.43;;
8252;SDS011;61313;48.396;10.008;2022-10-22T04:06:13;7.10;;;2.20;;
8252;SDS011;61313;48.396;10.008;2022-10-22T04:08:40;8.23;;;2.37;;
8252;SDS011;61313;48.396;10.008;2022-10-22T04:11:07;5.57;;;1.40;;
8252;SDS011;61313;48.396;10.008;2022-10-22T04:13:33;4.73;;;1.80;;
8252;SDS011;61313;48.396;10.008;2022-10-22T04:16:06;8.63;;;1.97;;
8252;SDS011;61313;48.396;10.008;2022-10-22T04:18:33;3.53;;;1.30;;
8252;SDS011;61313;48.396;10.008;2022-10-22T04:20:59;5.53;;;1.60;;
8252;SDS011;61313;48.396;10.008;2022-10-22T04:23:25;10.83;;;1.60;;
8252;SDS011;61313;48.396;10.008;2022-10-22T04:25:56;4.80;;;1.37;;
8252;SDS011;61313;48.396;10.008;2022-10-22T04:28:25;2.40;;;1.30;;
8252;SDS011;61313;48.396;10.008;2022-10-22T04:30:51;2.53;;;1.07;;
8252;SDS011;61313;48.396;10.008;2022-10-22T04:33:17;1.60;;;0.90;;
8252;SDS011;61313;48.396;10.008;2022-10-22T04:35:42;3.73;;;2.07;;
8252;SDS011;61313;48.396;10.008;2022-10-22T04:38:08;5.60;;;1.43;;
8252;SDS011;61313;48.396;10.008;2022-10-22T04:40:34;5.63;;;1.80;;
8252;SDS011;61313;48.396;10.008;2022-10-22T04:42:59;6.20;;;1.67;;
8252;SDS011;61313;48.396;10.008;2022-10-22T04:45:25;5.23;;;1.20;;
8252;SDS011;61313;48.396;10.008;2022-10-22T04:47:51;3.80;;;1.70;;
8252;SDS011;61313;48.396;10.008;2022-10-22T04:50:16;3.13;;;1.20;;
8252;SDS011;61313;48.396;10.008;2022-10-22T04:52:42;5.70;;;2.20;;
8252;SDS011;61313;48.396;10.008;2022-10-22T04:55:08;1.90;;;1.20;;
8252;SDS011;61313;48.396;10.008;2022-10-22T04:57:34;3.60;;;1.33;;
8252;SDS011;61313;48.396;10.008;2022-10-22T05:00:00;5.83;;;1.40;;
8252;SDS011;61313;48.396;10.008;2022-10-22T05:02:25;7.67;;;1.73;;
8252;SDS011;61313;48.396;10.008;2022-10-22T05:04:51;2.60;;;1.47;;
8252;SDS011;61313;48.396;10.008;2022-10-22T05:07:17;4.67;;;2.10;;
8252;SDS011;61313;48.396;10.008;2022-10-22T05:09:43;3.67;;;1.53;;
8252;SDS011;61313;48.396;10.008;2022-10-22T05:12:08;17.07;;;2.43;;
8252;SDS011;61313;48.396;10.008;2022-10-22T05:14:34;11.17;;;2.30;;
8252;SDS011;61313;48.396;10.008;2022-10-22T05:16:59;7.30;;;1.83;;
8252;SDS011;61313;48.396;10.008;2022-10-22T05:19:26;6.03;;;2.60;;
8252;SDS011;61313;48.396;10.008;2022-10-22T05:21:54;2.67;;;1.67;;
8252;SDS011;61313;48.396;10.008;2022-10-22T05:24:22;15.87;;;2.80;;
8252;SDS011;61313;48.396;10.008;2022-10-22T05:26:49;11.50;;;2.97;;
8252;SDS011;61313;48.396;10.008;2022-10-22T05:29:16;5.53;;;2.17;;
8252;SDS011;61313;48.396;10.008;2022-10-22T05:31:41;8.27;;;2.50;;
8252;SDS011;61313;48.396;10.008;2022-10-22T05:34:07;6.30;;;2.10;;
8252;SDS011;61313;48.396;10.008;2022-10-22T05:36:33;14.77;;;4.43;;
8252;SDS011;61313;48.396;10.008;2022-10-22T05:38:58;4.27;;;2.50;;
8252;SDS011;61313;48.396;10.008;2022-10-22T05:41:25;8.73;;;2.50;;
8252;SDS011;61313;48.396;10.008;2022-10-22T05:43:55;7.20;;;3.10;;
8252;SDS011;61313;48.396;10.008;2022-10-22T05:46:23;9.10;;;2.70;;
8252;SDS011;61313;48.396;10.008;2022-10-22T05:48:57;13.20;;;3.40;;
8252;SDS011;61313;48.396;10.008;2022-10-22T05:51:28;5.20;;;3.23;;
8252;SDS011;61313;48.396;10.008;2022-10-22T05:54:00;2.93;;;2.57;;
8252;SDS011;61313;48.396;10.008;2022-10-22T05:56:27;4.00;;;2.30;;
8252;SDS011;61313;48.396;10.008;2022-10-22T05:58:54;3.63;;;2.60;;
8252;SDS011;61313;48.396;10.008;2022-10-22T06:01:24;34.73;;;5.87;;
8252;SDS011;61313;48.396;10.008;2022-10-22T06:03:56;13.57;;;3.60;;
8252;SDS011;61313;48.396;10.008;2022-10-22T06:06:28;12.77;;;3.17;;
8252;SDS011;61313;48.396;10.008;2022-10-22T06:08:55;4.03;;;1.60;;
8252;SDS011;61313;48.396;10.008;2022-10-22T06:11:23;3.77;;;1.50;;
8252;SDS011;61313;48.396;10.008;2022-10-22T06:13:50;2.93;;;1.67;;
8252;SDS011;61313;48.396;10.008;2022-10-22T06:16:15;5.77;;;1.90;;
8252;SDS011;61313;48.396;10.008;2022-10-22T06:18:41;8.40;;;2.57;;
8252;SDS011;61313;48.396;10.008;2022-10-22T06:21:09;5.50;;;2.57;;
8252;SDS011;61313;48.396;10.008;2022-10-22T06:23:37;7.40;;;2.40;;
8252;SDS011;61313;48.396;10.008;2022-10-22T06:26:03;5.70;;;1.87;;
8252;SDS011;61313;48.396;10.008;2022-10-22T06:28:29;12.80;;;2.07;;
8252;SDS011;61313;48.396;10.008;2022-10-22T06:30:56;2.47;;;1.80;;
8252;SDS011;61313;48.396;10.008;2022-10-22T06:33:26;47.53;;;4.70;;
8252;SDS011;61313;48.396;10.008;2022-10-22T06:35:53;10.47;;;2.70;;
8252;SDS011;61313;48.396;10.008;2022-10-22T06:38:18;4.27;;;2.63;;
8252;SDS011;61313;48.396;10.008;2022-10-22T06:40:45;7.33;;;2.40;;
8252;SDS011;61313;48.396;10.008;2022-10-22T06:43:11;38.97;;;7.37;;
8252;SDS011;61313;48.396;10.008;2022-10-22T06:45:37;9.47;;;4.27;;
8252;SDS011;61313;48.396;10.008;2022-10-22T06:48:03;10.17;;;3.00;;
8252;SDS011;61313;48.396;10.008;2022-10-22T06:50:29;6.73;;;2.23;;
8252;SDS011;61313;48.396;10.008;2022-10-22T06:52:55;5.20;;;1.43;;
8252;SDS011;61313;48.396;10.008;2022-10-22T06:55:21;5.63;;;2.20;;
8252;SDS011;61313;48.396;10.008;2022-10-22T06:57:47;1.83;;;1.60;;
8252;SDS011;61313;48.396;10.008;2022-10-22T07:00:13;8.30;;;3.80;;
8252;SDS011;61313;48.396;10.008;2022-10-22T07:02:38;10.00;;;3.17;;
8252;SDS011;61313;48.396;10.008;2022-10-22T07:05:04;5.83;;;2.30;;
8252;SDS011;61313;48.396;10.008;2022-10-22T07:07:30;7.97;;;2.23;;
8252;SDS011;61313;48.396;10.008;2022-10-22T07:09:56;3.93;;;2.20;;
8252;SDS011;61313;48.396;10.008;2022-10-22T07:12:21;8.00;;;2.00;;
8252;SDS011;61313;48.396;10.008;2022-10-22T07:14:47;3.43;;;1.97;;
8252;SDS011;61313;48.396;10.008;2022-10-22T07:17:13;9.87;;;2.83;;
8252;SDS011;61313;48.396;10.008;2022-10-22T07:19:39;7.77;;;2.10;;
8252;SDS011;61313;48.396;10.008;2022-10-22T07:22:05;6.63;;;2.80;;
8252;SDS011;61313;48.396;10.008;2022-10-22T07:24:30;4.40;;;2.47;;
8252;SDS011;61313;48.396;10.008;2022-10-22T07:26:56;2.50;;;2.17;;
8252;SDS011;61313;48.396;10.008;2022-10-22T07:29:22;6.23;;;3.00;;
8252;SDS011;61313;48.396;10.008;2022-10-22T07:31:48;6.73;;;2.13;;
8252;SDS011;61313;48.396;10.008;2022-10-22T07:34:13;8.93;;;2.80;;
8252;SDS011;61313;48.396;10.008;2022-10-22T07:36:39;3.07;;;2.10;;
8252;SDS011;61313;48.396;10.008;2022-10-22T07:39:05;32.67;;;4.67;;
8252;SDS011;61313;48.396;10.008;2022-10-22T07:41:30;9.43;;;2.63;;
8252;SDS011;61313;48.396;10.008;2022-10-22T07:43:56;4.27;;;2.10;;
8252;SDS011;61313;48.396;10.008;2022-10-22T07:46:23;5.43;;;2.10;;
8252;SDS011;61313;48.396;10.008;2022-10-22T07:48:49;6.93;;;1.80;;
8252;SDS011;61313;48.396;10.008;2022-10-22T07:51:15;12.23;;;2.80;;
8252;SDS011;61313;48.396;10.008;2022-10-22T07:53:41;10.10;;;2.40;;
8252;SDS011;61313;48.396;10.008;2022-10-22T07:56:07;8.13;;;2.20;;
8252;SDS011;61313;48.396;10.008;2022-10-22T07:58:33;5.60;;;3.60;;
8252;SDS011;61313;48.396;10.008;2022-10-22T08:00:59;3.20;;;2.23;;
8252;SDS011;61313;48.396;10.008;2022-10-22T08:03:26;5.63;;;2.80;;
8252;SDS011;61313;48.396;10.008;2022-10-22T08:05:52;15.13;;;3.43;;
8252;SDS011;61313;48.396;10.008;2022-10-22T08:08:19;2.97;;;2.00;;
8252;SDS011;61313;48.396;10.008;2022-10-22T08:10:46;4.63;;;2.10;;
8252;SDS011;61313;48.396;10.008;2022-10-22T08:13:13;5.97;;;3.07;;
8252;SDS011;61313;48.396;10.008;2022-10-22T08:15:38;3.33;;;2.20;;
8252;SDS011;61313;48.396;10.008;2022-10-22T08:18:06;2.47;;;2.27;;
8252;SDS011;61313;48.396;10.008;2022-10-22T08:20:32;3.70;;;3.17;;
8252;SDS011;61313;48.396;10.008;2022-10-22T08:22:58;6.57;;;2.60;;
8252;SDS011;61313;48.396;10.008;2022-10-22T08:25:24;5.03;;;2.10;;
8252;SDS011;61313;48.396;10.008;2022-10-22T08:27:50;4.23;;;3.70;;
8252;SDS011;61313;48.396;10.008;2022-10-22T08:30:16;3.30;;;2.53;;
8252;SDS011;61313;48.396;10.008;2022-10-22T08:32:41;6.40;;;2.80;;
8252;SDS011;61313;48.396;10.008;2022-10-22T08:35:08;3.67;;;2.50;;
8252;SDS011;61313;48.396;10.008;2022-10-22T08:37:33;4.73;;;2.30;;
8252;SDS011;61313;48.396;10.008;2022-10-22T08:39:59;6.33;;;2.60;;
8252;SDS011;61313;48.396;10.008;2022-10-22T08:50:56;6.70;;;2.10;;
8252;SDS011;61313;48.396;10.008;2022-10-22T08:56:13;26.13;;;4.50;;
8252;SDS011;61313;48.396;10.008;2022-10-22T08:58:45;11.53;;;3.03;;
8252;SDS011;61313;48.396;10.008;2022-10-22T09:01:34;12.77;;;3.37;;
8252;SDS011;61313;48.396;10.008;2022-10-22T09:06:54;32.87;;;5.67;;
8252;SDS011;61313;48.396;10.008;2022-10-22T09:09:22;28.83;;;3.93;;
8252;SDS011;61313;48.396;10.008;2022-10-22T09:11:53;22.53;;;3.57;;
8252;SDS011;61313;48.396;10.008;2022-10-22T09:14:22;7.63;;;3.20;;
8252;SDS011;61313;48.396;10.008;2022-10-22T09:24:48;6.50;;;2.30;;
8252;SDS011;61313;48.396;10.008;2022-10-22T09:27:26;2.50;;;1.80;;
8252;SDS011;61313;48.396;10.008;2022-10-22T09:29:54;6.20;;;2.10;;
8252;SDS011;61313;48.396;10.008;2022-10-22T09:32:20;3.97;;;1.77;;
8252;SDS011;61313;48.396;10.008;2022-10-22T09:34:47;3.40;;;2.47;;
8252;SDS011;61313;48.396;10.008;2022-10-22T09:37:15;5.57;;;2.23;;
8252;SDS011;61313;48.396;10.008;2022-10-22T09:39:44;8.00;;;2.00;;
8252;SDS011;61313;48.396;10.008;2022-10-22T09:42:14;13.50;;;2.90;;
8252;SDS011;61313;48.396;10.008;2022-10-22T09:44:42;13.00;;;2.20;;
8252;SDS011;61313;48.396;10.008;2022-10-22T09:47:25;7.17;;;2.77;;
8252;SDS011;61313;48.396;10.008;2022-10-22T09:53:11;25.40;;;3.73;;
8252;SDS011;61313;48.396;10.008;2022-10-22T09:58:51;13.50;;;3.10;;
8252;SDS011;61313;48.396;10.008;2022-10-22T10:01:18;9.13;;;3.70;;
8252;SDS011;61313;48.396;10.008;2022-10-22T10:04:02;11.30;;;3.63;;
8252;SDS011;61313;48.396;10.008;2022-10-22T10:06:30;14.77;;;3.10;;
8252;SDS011;61313;48.396;10.008;2022-10-22T10:08:58;12.17;;;3.03;;
8252;SDS011;61313;48.396;10.008;2022-10-22T10:12:33;13.27;;;3.73;;
8252;SDS011;61313;48.396;10.008;2022-10-22T10:14:31;36.03;;;5.63;;
8252;SDS011;61313;48.396;10.008;2022-10-22T10:17:15;25.77;;;4.80;;
8252;SDS011;61313;48.396;10.008;2022-10-22T10:20:38;25.37;;;5.20;;
8252;SDS011;61313;48.396;10.008;2022-10-22T10:25:54;5.47;;;2.60;;
8252;SDS011;61313;48.396;10.008;2022-10-22T10:36:39;3.63;;;3.33;;
8252;SDS011;61313;48.396;10.008;2022-10-22T10:49:31;25.57;;;6.00;;
8252;SDS011;61313;48.396;10.008;2022-10-22T11:00:24;33.63;;;5.70;;
8252;SDS011;61313;48.396;10.008;2022-10-22T11:05:57;34.73;;;5.73;;
8252;SDS011;61313;48.396;10.008;2022-10-22T11:08:35;11.37;;;4.50;;
8252;SDS011;61313;48.396;10.008;2022-10-22T11:11:14;12.83;;;4.30;;
8252;SDS011;61313;48.396;10.008;2022-10-22T11:14:02;23.97;;;4.37;;
8252;SDS011;61313;48.396;10.008;2022-10-22T11:21:48;28.30;;;6.03;;
8252;SDS011;61313;48.396;10.008;2022-10-22T11:29:47;27.13;;;4.83;;
8252;SDS011;61313;48.396;10.008;2022-10-22T11:32:18;12.23;;;2.80;;
8252;SDS011;61313;48.396;10.008;2022-10-22T11:34:53;19.67;;;4.10;;
8252;SDS011;61313;48.396;10.008;2022-10-22T11:37:23;30.40;;;5.50;;
8252;SDS011;61313;48.396;10.008;2022-10-22T11:39:52;38.57;;;5.87;;
8252;SDS011;61313;48.396;10.008;2022-10-22T11:42:37;20.70;;;5.87;;
8252;SDS011;61313;48.396;10.008;2022-10-22T11:47:50;33.70;;;5.97;;
8252;SDS011;61313;48.396;10.008;2022-10-22T11:50:18;20.60;;;4.00;;
8252;SDS011;61313;48.396;10.008;2022-10-22T11:58:28;41.63;;;5.50;;
8252;SDS011;61313;48.396;10.008;2022-10-22T12:17:09;47.23;;;8.17;;
8252;SDS011;61313;48.396;10.008;2022-10-22T12:24:38;13.93;;;5.00;;
8252;SDS011;61313;48.396;10.008;2022-10-22T12:27:25;22.03;;;3.57;;
8252;SDS011;61313;48.396;10.008;2022-10-22T12:29:57;23.40;;;5.03;;
8252;SDS011;61313;48.396;10.008;2022-10-22T12:32:37;17.00;;;3.70;;
8252;SDS011;61313;48.396;10.008;2022-10-22T12:35:16;50.17;;;7.20;;
8252;SDS011;61313;48.396;10.008;2022-10-22T12:37:47;21.40;;;4.90;;
8252;SDS011;61313;48.396;10.008;2022-10-22T12:40:19;42.20;;;5.83;;
8252;SDS011;61313;48.396;10.008;2022-10-22T12:42:54;30.87;;;5.13;;
8252;SDS011;61313;48.396;10.008;2022-10-22T12:45:22;24.33;;;6.13;;
8252;SDS011;61313;48.396;10.008;2022-10-22T12:47:51;11.07;;;3.30;;
8252;SDS011;61313;48.396;10.008;2022-10-22T12:50:35;11.80;;;3.83;;
8252;SDS011;61313;48.396;10.008;2022-10-22T12:53:05;28.23;;;4.70;;
8252;SDS011;61313;48.396;10.008;2022-10-22T12:55:37;14.90;;;2.90;;
8252;SDS011;61313;48.396;10.008;2022-10-22T12:58:04;13.63;;;3.83;;
8252;SDS011;61313;48.396;10.008;2022-10-22T13:00:31;13.93;;;3.03;;
8252;SDS011;61313;48.396;10.008;2022-10-22T13:02:58;9.03;;;3.37;;
8252;SDS011;61313;48.396;10.008;2022-10-22T13:05:33;9.17;;;3.30;;
8252;SDS011;61313;48.396;10.008;2022-10-22T13:10:34;5.93;;;2.87;;
8252;SDS011;61313;48.396;10.008;2022-10-22T13:13:02;16.00;;;3.87;;
8252;SDS011;61313;48.396;10.008;2022-10-22T13:20:27;15.17;;;3.20;;
8252;SDS011;61313;48.396;10.008;2022-10-22T13:23:03;19.30;;;3.70;;
8252;SDS011;61313;48.396;10.008;2022-10-22T13:27:58;9.73;;;3.10;;
8252;SDS011;61313;48.396;10.008;2022-10-22T13:30:28;11.43;;;3.20;;
8252;SDS011;61313;48.396;10.008;2022-10-22T13:32:59;48.33;;;7.03;;
8252;SDS011;61313;48.396;10.008;2022-10-22T13:35:53;10.30;;;3.13;;
8252;SDS011;61313;48.396;10.008;2022-10-22T13:38:21;7.80;;;2.80;;
8252;SDS011;61313;48.396;10.008;2022-10-22T13:40:48;27.57;;;3.80;;
8252;SDS011;61313;48.396;10.008;2022-10-22T13:43:14;40.00;;;5.00;;
8252;SDS011;61313;48.396;10.008;2022-10-22T13:45:41;19.20;;;3.50;;
8252;SDS011;61313;48.396;10.008;2022-10-22T13:48:11;9.63;;;3.00;;
8252;SDS011;61313;48.396;10.008;2022-10-22T13:50:40;5.13;;;3.07;;
8252;SDS011;61313;48.396;10.008;2022-10-22T13:53:08;10.40;;;3.00;;
8252;SDS011;61313;48.396;10.008;2022-10-22T13:55:42;26.60;;;5.20;;
8252;SDS011;61313;48.396;10.008;2022-10-22T13:58:12;19.03;;;3.50;;
8252;SDS011;61313;48.396;10.008;2022-10-22T14:00:42;13.10;;;3.63;;
8252;SDS011;61313;48.396;10.008;2022-10-22T14:03:17;14.83;;;4.30;;
8252;SDS011;61313;48.396;10.008;2022-10-22T14:05:46;14.93;;;3.27;;
8252;SDS011;61313;48.396;10.008;2022-10-22T14:08:14;41.17;;;6.90;;
8252;SDS011;61313;48.396;10.008;2022-10-22T14:10:42;16.73;;;3.33;;
8252;SDS011;61313;48.396;10.008;2022-10-22T14:13:11;12.80;;;2.80;;
8252;SDS011;61313;48.396;10.008;2022-10-22T14:15:40;13.27;;;3.23;;
8252;SDS011;61313;48.396;10.008;2022-10-22T14:18:07;10.33;;;3.80;;
8252;SDS011;61313;48.396;10.008;2022-10-22T14:20:39;13.97;;;3.10;;
8252;SDS011;61313;48.396;10.008;2022-10-22T14:23:12;8.90;;;2.73;;
8252;SDS011;61313;48.396;10.008;2022-10-22T14:25:42;20.93;;;4.00;;
8252;SDS011;61313;48.396;10.008;2022-10-22T14:28:09;18.87;;;3.97;;
8252;SDS011;61313;48.396;10.008;2022-10-22T14:30:36;17.47;;;3.47;;
8252;SDS011;61313;48.396;10.008;2022-10-22T14:33:45;4.67;;;3.07;;
8252;SDS011;61313;48.396;10.008;2022-10-22T14:35:55;5.40;;;2.40;;
8252;SDS011;61313;48.396;10.008;2022-10-22T14:38:21;5.00;;;2.27;;
8252;SDS011;61313;48.396;10.008;2022-10-22T14:40:47;7.23;;;2.50;;
8252;SDS011;61313;48.396;10.008;2022-10-22T14:43:21;7.97;;;3.10;;
8252;SDS011;61313;48.396;10.008;2022-10-22T14:45:49;8.00;;;3.37;;
8252;SDS011;61313;48.396;10.008;2022-10-22T14:48:15;9.03;;;3.30;;
8252;SDS011;61313;48.396;10.008;2022-10-22T14:50:42;8.93;;;2.03;;
8252;SDS011;61313;48.396;10.008;2022-10-22T14:53:08;5.30;;;2.30;;
8252;SDS011;61313;48.396;10.008;2022-10-22T14:55:34;27.03;;;4.27;;
8252;SDS011;61313;48.396;10.008;2022-10-22T14:58:00;12.93;;;3.07;;
8252;SDS011;61313;48.396;10.008;2022-10-22T15:00:25;51.93;;;7.43;;
8252;SDS011;61313;48.396;10.008;2022-10-22T15:02:51;10.17;;;3.27;;
8252;SDS011;61313;48.396;10.008;2022-10-22T15:05:19;31.23;;;5.60;;
8252;SDS011;61313;48.396;10.008;2022-10-22T15:07:46;6.67;;;2.73;;
8252;SDS011;61313;48.396;10.008;2022-10-22T15:10:12;8.50;;;3.90;;
8252;SDS011;61313;48.396;10.008;2022-10-22T15:12:38;17.70;;;4.23;;
8252;SDS011;61313;48.396;10.008;2022-10-22T15:15:04;6.47;;;2.73;;
8252;SDS011;61313;48.396;10.008;2022-10-22T15:17:30;6.80;;;2.60;;
8252;SDS011;61313;48.396;10.008;2022-10-22T15:19:56;12.43;;;3.63;;
8252;SDS011;61313;48.396;10.008;2022-10-22T15:22:24;7.10;;;2.40;;
8252;SDS011;61313;48.396;10.008;2022-10-22T15:24:50;6.27;;;2.77;;
8252;SDS011;61313;48.396;10.008;2022-10-22T15:27:17;11.73;;;3.50;;
8252;SDS011;61313;48.396;10.008;2022-10-22T15:29:43;207.10;;;17.13;;
8252;SDS011;61313;48.396;10.008;2022-10-22T15:32:09;22.73;;;2.90;;
8252;SDS011;61313;48.396;10.008;2022-10-22T15:34:35;7.67;;;2.87;;
8252;SDS011;61313;48.396;10.008;2022-10-22T15:37:04;25.17;;;3.50;;
8252;SDS011;61313;48.396;10.008;2022-10-22T15:39:31;9.57;;;3.40;;
8252;SDS011;61313;48.396;10.008;2022-10-22T15:41:58;55.70;;;8.00;;
8252;SDS011;61313;48.396;10.008;2022-10-22T15:44:28;53.10;;;7.67;;
8252;SDS011;61313;48.396;10.008;2022-10-22T15:46:55;63.40;;;8.90;;
8252;SDS011;61313;48.396;10.008;2022-10-22T15:49:22;18.47;;;3.53;;
8252;SDS011;61313;48.396;10.008;2022-10-22T15:51:49;12.57;;;4.23;;
8252;SDS011;61313;48.396;10.008;2022-10-22T15:54:16;39.00;;;6.50;;
8252;SDS011;61313;48.396;10.008;2022-10-22T15:56:43;44.67;;;7.80;;
8252;SDS011;61313;48.396;10.008;2022-10-22T15:59:10;17.73;;;3.90;;
8252;SDS011;61313;48.396;10.008;2022-10-22T16:01:37;27.40;;;6.13;;
8252;SDS011;61313;48.396;10.008;2022-10-22T16:04:03;69.47;;;10.40;;
8252;SDS011;61313;48.396;10.008;2022-10-22T16:09:07;10.40;;;4.10;;
8252;SDS011;61313;48.396;10.008;2022-10-22T16:11:35;16.57;;;3.87;;
8252;SDS011;61313;48.396;10.008;2022-10-22T16:14:01;11.03;;;4.80;;
8252;SDS011;61313;48.396;10.008;2022-10-22T16:16:28;44.00;;;6.40;;
8252;SDS011;61313;48.396;10.008;2022-10-22T16:18:55;70.63;;;8.80;;
8252;SDS011;61313;48.396;10.008;2022-10-22T16:21:22;17.73;;;5.00;;
8252;SDS011;61313;48.396;10.008;2022-10-22T16:23:48;12.30;;;4.17;;
8252;SDS011;61313;48.396;10.008;2022-10-22T16:26:15;26.07;;;5.30;;
8252;SDS011;61313;48.396;10.008;2022-10-22T16:28:42;47.40;;;6.73;;
8252;SDS011;61313;48.396;10.008;2022-10-22T16:31:10;13.97;;;4.60;;
8252;SDS011;61313;48.396;10.008;2022-10-22T16:33:37;14.20;;;4.47;;
8252;SDS011;61313;48.396;10.008;2022-10-22T16:36:04;7.60;;;3.73;;
8252;SDS011;61313;48.396;10.008;2022-10-22T16:38:31;15.43;;;4.00;;
8252;SDS011;61313;48.396;10.008;2022-10-22T16:41:19;11.37;;;5.20;;
8252;SDS011;61313;48.396;10.008;2022-10-22T16:43:47;7.50;;;4.50;;
8252;SDS011;61313;48.396;10.008;2022-10-22T16:46:15;10.93;;;4.00;;
8252;SDS011;61313;48.396;10.008;2022-10-22T16:48:49;4.90;;;3.90;;
8252;SDS011;61313;48.396;10.008;2022-10-22T16:51:18;5.10;;;3.80;;
8252;SDS011;61313;48.396;10.008;2022-10-22T16:53:45;5.83;;;3.93;;
8252;SDS011;61313;48.396;10.008;2022-10-22T16:56:12;8.30;;;4.67;;
8252;SDS011;61313;48.396;10.008;2022-10-22T16:58:42;11.63;;;5.50;;
8252;SDS011;61313;48.396;10.008;2022-10-22T17:01:10;13.43;;;7.43;;
8252;SDS011;61313;48.396;10.008;2022-10-22T17:03:36;19.67;;;12.97;;
8252;SDS011;61313;48.396;10.008;2022-10-22T17:06:03;127.87;;;75.37;;
8252;SDS011;61313;48.396;10.008;2022-10-22T17:08:29;61.50;;;41.97;;
8252;SDS011;61313;48.396;10.008;2022-10-22T17:10:57;25.53;;;17.83;;
8252;SDS011;61313;48.396;10.008;2022-10-22T17:13:33;19.80;;;14.10;;